Corlu, Turkey

10:21 AM EEST on July 27, 2016 (GMT +0300)
Corlu Air Base | | Change Station

Elev 568 ft 41.14 °N, 27.92 °E | Updated 31 minutes ago

Scattered Clouds
Scattered Clouds
79 °F
Feels Like 79 °F
N
16
Wind Variable Wind from NNE

Today
High -- | Low -- °F
--% Chance of Precip.
Yesterday
High -- | Low -- °F
Precip. -- in
Pressure 29.92 in
Visibility 6.2 miles
Clouds Scattered Clouds 3000 ft
Dew Point 64 °F
Humidity 61%
Rainfall 0.00 in
Snow Depth Not available.
5:59 AM 8:29 PM
Last Quarter, 46% visible
METAR LTBU 270650Z 03014KT 9999 SCT030 26/18 Q1013 RMK RWY23 05013KT
Pressure 29.92 in
Visibility 6.2 miles
Clouds Scattered Clouds 3000 ft
Dew Point 64 °F
Humidity 61%
Rainfall 0.00 in
Snow Depth Not available.
5:59 AM 8:29 PM
Last Quarter, 46% visible
METAR LTBU 270650Z 03014KT 9999 SCT030 26/18 Q1013 RMK RWY23 05013KT

10-Day Weather Forecast

×

Almanac

Astronomy

Jul. 27, 2016 Rise Set
Actual Time
Civil Twilight
Nautical Twilight
Astronomical Twilight
Moon
Length of Visible Light
Length of Day
Tomorrow will be .
, % of the Moon is Illuminated

Today's Extremes

Country Highs Country Lows

Community

WunderPhotos

Upload Photos

1,927,818 photos uploaded!

WunderBlog® & News

Nearby

Air Quality

  Air Quality AQ Index Pollutant
Not available.

Snow Depth

Station Depth Elevation

Earthquake Activity

City Distance Mag. Time & Date
Minimum magnitude displayed is 2.5.

Coastal Water Temperatures

Place Temperature

Stations

Nearby Weather Stations

Station Location Temp. Windchill Dew Point Humidity Wind Precip. Elev Updated Type